Time;durP1;ratioP1;P1;durP2;ratioP2;P2;SDS_P1;SDS_P2;PMS_P1;PMS_P2;Temp;Humidity;BMP_temperature;BMP_pressure;BME280_temperature;BME280_humidity;BME280_pressure;Samples;Min_cycle;Max_cycle;Signal;HPM_P1;HPM_P2
2023/06/20 00:03:55;;;;;;;3.05;1.77;;;;;;;;;;20747060;28;20603;-72
2023/06/20 00:13:57;;;;;;;2.78;1.70;;;;;;;;;;20738500;28;20230;-72
2023/06/20 00:23:59;;;;;;;3.00;1.88;;;;;;;;;;20759276;23;20357;-64
2023/06/20 00:34:00;;;;;;;2.47;1.73;;;;;;;;;;20694959;28;20312;-67
2023/06/20 00:44:04;;;;;;;3.78;1.98;;;26.30;99.90;;;;;;20777196;28;20744;-66
2023/06/20 00:54:06;;;;;;;2.88;1.70;;;;;;;;;;20705127;28;20296;-66
2023/06/20 01:04:09;;;;;;;3.05;2.05;;;;;;;;;;20726104;28;20231;-66
2023/06/20 01:14:22;;;;;;;3.15;2.13;;;;;;;;;;20691828;28;20229;-66
2023/06/20 01:24:43;;;;;;;3.53;2.15;;;;;;;;;;20694453;28;20226;-66
2023/06/20 01:34:46;;;;;;;2.85;1.90;;;;;;;;;;20704479;28;20265;-66
2023/06/20 01:44:52;;;;;;;3.45;2.42;;;;;;;;;;20690003;28;20288;-66
2023/06/20 01:54:57;;;;;;;2.58;2.03;;;;;;;;;;20775056;28;20216;-66
2023/06/20 02:05:00;;;;;;;3.30;2.63;;;;;;;;;;20770533;28;20582;-66
2023/06/20 02:15:03;;;;;;;3.90;3.15;;;;;;;;;;20715934;28;20773;-66
2023/06/20 02:25:07;;;;;;;4.55;3.47;;;;;;;;;;20708561;28;20229;-66
2023/06/20 02:35:11;;;;;;;4.03;3.00;;;;;;;;;;20711435;28;20230;-66
2023/06/20 02:45:13;;;;;;;3.30;2.80;;;;;;;;;;20691303;28;20217;-66
2023/06/20 02:55:27;;;;;;;3.53;2.60;;;;;;;;;;20701554;28;20233;-66
2023/06/20 03:05:31;;;;;;;2.72;2.17;;;;;;;;;;20675486;28;20655;-66
2023/06/20 03:15:33;;;;;;;3.83;2.22;;;;;;;;;;20698500;28;20672;-66
2023/06/20 03:25:37;;;;;;;4.55;2.45;;;;;;;;;;20712028;28;20230;-70
2023/06/20 03:35:40;;;;;;;3.45;2.17;;;24.50;99.90;;;;;;20678099;28;20255;-70
2023/06/20 03:45:42;;;;;;;2.88;2.20;;;;;;;;;;20702972;28;20224;-69
2023/06/20 03:55:43;;;;;;;2.47;2.13;;;;;;;;;;20712705;28;20221;-69
2023/06/20 04:05:46;;;;;;;2.63;1.90;;;;;;;;;;20698471;28;20279;-69
2023/06/20 04:15:48;;;;;;;2.45;2.10;;;;;;;;;;20711644;28;20290;-68
2023/06/20 04:25:50;;;;;;;4.50;3.28;;;;;;;;;;20683547;28;20225;-69
2023/06/20 04:35:54;;;;;;;9.30;5.82;;;;;;;;;;20696109;28;20282;-69
2023/06/20 04:45:57;;;;;;;6.82;3.50;;;;;;;;;;20734544;28;20218;-69
2023/06/20 04:55:59;;;;;;;5.18;3.72;;;;;;;;;;20774895;28;20227;-69
2023/06/20 05:06:00;;;;;;;3.75;2.90;;;;;;;;;;20700802;28;20278;-69
2023/06/20 05:16:04;;;;;;;3.83;2.65;;;;;;;;;;20686747;28;20240;-69
2023/06/20 05:26:06;;;;;;;4.28;3.05;;;;;;;;;;20676551;28;20288;-69
2023/06/20 05:36:08;;;;;;;3.90;2.90;;;;;;;;;;20679891;28;20983;-68
2023/06/20 05:46:10;;;;;;;4.90;2.85;;;;;;;;;;20687199;28;20696;-69
2023/06/20 05:56:13;;;;;;;3.30;2.78;;;;;;;;;;20689163;28;20244;-69
2023/06/20 06:06:15;;;;;;;4.28;3.10;;;24.70;99.90;;;;;;20688428;28;20212;-70
2023/06/20 06:16:17;;;;;;;3.63;2.60;;;;;;;;;;20687473;28;20278;-71
2023/06/20 06:26:19;;;;;;;3.67;2.97;;;;;;;;;;20684283;23;20780;-74
2023/06/20 06:36:22;;;;;;;4.32;2.80;;;;;;;;;;20708854;28;20230;-73
2023/06/20 06:46:24;;;;;;;3.08;2.65;;;;;;;;;;20817059;28;20221;-73
2023/06/20 06:56:26;;;;;;;3.63;2.90;;;;;;;;;;20816603;28;20221;-72
2023/06/20 07:06:29;;;;;;;3.85;2.65;;;;;;;;;;20794092;28;20721;-72
2023/06/20 07:16:32;;;;;;;3.80;2.95;;;;;;;;;;20806040;28;20689;-73
2023/06/20 07:26:33;;;;;;;4.80;2.78;;;;;;;;;;20812737;28;20295;-73
2023/06/20 07:36:36;;;;;;;2.92;2.38;;;;;;;;;;20802720;28;20264;-74
2023/06/20 07:46:39;;;;;;;4.88;2.78;;;;;;;;;;20745051;28;20233;-73
2023/06/20 07:56:40;;;;;;;2.97;2.42;;;;;;;;;;20818857;28;20230;-74
2023/06/20 08:06:42;;;;;;;3.42;2.58;;;;;;;;;;20758634;28;20213;-74
2023/06/20 08:16:44;;;;;;;3.45;2.38;;;;;;;;;;20765295;28;20229;-73
2023/06/20 08:26:46;;;;;;;2.67;2.42;;;;;;;;;;20806407;28;20241;-75
2023/06/20 08:36:47;;;;;;;3.80;2.47;;;;;;;;;;20813507;28;20778;-72
2023/06/20 08:46:56;;;;;;;2.85;2.55;;;;;;;;;;20804174;28;20215;-73
2023/06/20 08:56:59;;;;;;;2.78;2.35;;;27.90;99.90;;;;;;20786499;28;20285;-74
2023/06/20 09:07:01;;;;;;;2.90;2.40;;;;;;;;;;20707197;28;20593;-74
2023/06/20 09:17:03;;;;;;;4.28;2.80;;;;;;;;;;20804326;28;20233;-73
2023/06/20 09:27:05;;;;;;;4.32;2.20;;;;;;;;;;20776642;28;20227;-73
2023/06/20 09:37:09;;;;;;;2.58;2.25;;;28.90;99.90;;;;;;20762172;28;20221;-72
2023/06/20 09:47:10;;;;;;;2.80;1.98;;;;;;;;;;20777186;28;20227;-73
2023/06/20 09:57:16;;;;;;;3.70;1.83;;;;;;;;;;20778229;28;20254;-71
2023/06/20 10:07:18;;;;;;;2.97;2.03;;;;;;;;;;20772616;28;20578;-73
2023/06/20 10:17:31;;;;;;;1.90;1.60;;;29.90;99.90;;;;;;20773927;28;20291;-72
2023/06/20 10:27:32;;;;;;;1.80;1.30;;;;;;;;;;20789220;28;20279;-71
2023/06/20 10:37:36;;;;;;;1.73;1.35;;;;;;;;;;20784856;28;20217;-72
2023/06/20 10:47:38;;;;;;;2.42;1.30;;;;;;;;;;20762784;28;20530;-70
2023/06/20 10:57:46;;;;;;;3.85;1.58;;;;;;;;;;20801302;28;20594;-72
2023/06/20 11:07:51;;;;;;;1.95;1.17;;;;;;;;;;20816131;28;20462;-72
2023/06/20 11:17:54;;;;;;;1.70;1.20;;;;;;;;;;20831706;28;20630;-72
2023/06/20 11:28:03;;;;;;;1.60;1.05;;;31.20;95.00;;;;;;20827384;28;20765;-72
2023/06/20 11:38:05;;;;;;;1.98;1.13;;;;;;;;;;20796423;28;20207;-72
2023/06/20 11:48:10;;;;;;;3.38;1.08;;;31.60;86.60;;;;;;20802207;28;20606;-72
2023/06/20 11:58:12;;;;;;;2.00;1.30;;;;;;;;;;20797084;28;20352;-73
2023/06/20 12:08:14;;;;;;;1.92;1.20;;;;;;;;;;20782293;28;20211;-72
2023/06/20 12:18:15;;;;;;;2.38;1.10;;;;;;;;;;20808815;28;20704;-73
2023/06/20 12:28:17;;;;;;;2.13;1.10;;;;;;;;;;20784539;28;20668;-72
2023/06/20 12:38:19;;;;;;;1.40;0.95;;;;;;;;;;20861540;23;20652;-87
2023/06/20 12:48:21;;;;;;;1.40;0.95;;;;;;;;;;20869495;28;20213;-86
2023/06/20 12:58:22;;;;;;;2.67;1.73;;;;;;;;;;20963372;28;20251;-86
2023/06/20 13:08:24;;;;;;;2.10;1.17;;;;;;;;;;20990923;28;20231;-84
2023/06/20 13:18:25;;;;;;;3.78;1.50;;;;;;;;;;20966376;28;20221;-84
2023/06/20 13:28:27;;;;;;;1.60;1.23;;;;;;;;;;20942477;28;20255;-84
2023/06/20 13:38:29;;;;;;;2.10;1.30;;;;;;;;;;20941638;28;20251;-84
2023/06/20 13:48:31;;;;;;;2.15;1.38;;;33.30;82.30;;;;;;20935518;28;20263;-84
2023/06/20 13:58:32;;;;;;;2.03;1.58;;;;;;;;;;20956581;28;20248;-84
2023/06/20 14:08:34;;;;;;;2.28;1.35;;;;;;;;;;20939931;28;20592;-84
2023/06/20 14:18:36;;;;;;;3.08;1.50;;;;;;;;;;20933731;28;20697;-84
2023/06/20 14:28:38;;;;;;;1.90;1.30;;;;;;;;;;20958023;28;20646;-84
2023/06/20 14:38:40;;;;;;;1.92;1.65;;;;;;;;;;20933943;28;20233;-84
2023/06/20 14:48:42;;;;;;;2.78;1.48;;;;;;;;;;20984650;28;20252;-85
2023/06/20 14:58:44;;;;;;;2.58;1.50;;;;;;;;;;20957611;28;20217;-87
2023/06/20 15:08:45;;;;;;;3.78;1.73;;;;;;;;;;20931953;28;20232;-85
2023/06/20 15:18:47;;;;;;;2.85;1.50;;;;;;;;;;20950234;28;20221;-86
2023/06/20 15:28:50;;;;;;;2.13;1.27;;;;;;;;;;20954799;28;20260;-85
2023/06/20 15:38:51;;;;;;;2.05;1.23;;;;;;;;;;20935600;28;20299;-87
2023/06/20 15:49:01;;;;;;;2.97;1.50;;;;;;;;;;20947427;28;20665;-84
2023/06/20 15:59:03;;;;;;;2.92;1.50;;;;;;;;;;20979998;28;20266;-85
2023/06/20 16:09:05;;;;;;;2.05;1.38;;;;;;;;;;20933854;28;20229;-88
2023/06/20 16:19:07;;;;;;;2.83;1.70;;;;;;;;;;20934452;28;20279;-85
2023/06/20 16:29:08;;;;;;;2.17;1.50;;;;;;;;;;20994213;28;20233;-87
2023/06/20 16:39:10;;;;;;;3.72;1.50;;;;;;;;;;20988523;28;20209;-85
2023/06/20 16:49:12;;;;;;;2.55;1.77;;;;;;;;;;20974639;28;20969;-85
2023/06/20 16:59:13;;;;;;;3.25;1.67;;;;;;;;;;20991196;28;20790;-85
2023/06/20 17:09:15;;;;;;;3.22;1.45;;;;;;;;;;20957313;28;20241;-85
2023/06/20 17:19:18;;;;;;;2.38;1.50;;;;;;;;;;20944502;28;20711;-84
2023/06/20 17:29:21;;;;;;;3.53;1.38;;;;;;;;;;20931376;28;20221;-85
2023/06/20 17:39:25;;;;;;;2.85;1.60;;;;;;;;;;20950000;28;20613;-86
2023/06/20 17:49:27;;;;;;;5.43;2.17;;;;;;;;;;20952369;28;20241;-85
2023/06/20 17:59:29;;;;;;;3.70;1.95;;;;;;;;;;20951720;28;20381;-84
2023/06/20 18:09:32;;;;;;;4.55;2.20;;;;;;;;;;20952378;28;20221;-84
2023/06/20 18:19:34;;;;;;;2.40;1.90;;;;;;;;;;20950218;28;20225;-84
2023/06/20 18:29:36;;;;;;;3.70;2.22;;;;;;;;;;20949236;28;20259;-84
2023/06/20 18:39:37;;;;;;;4.55;2.00;;;;;;;;;;20948622;28;20287;-88
2023/06/20 18:49:39;;;;;;;2.47;1.63;;;;;;;;;;20930157;28;20619;-83
2023/06/20 18:59:41;;;;;;;4.15;1.65;;;;;;;;;;20940066;28;20229;-83
2023/06/20 19:09:42;;;;;;;4.47;2.28;;;;;;;;;;20940927;28;20238;-86
2023/06/20 19:19:44;;;;;;;3.30;1.80;;;;;;;;;;20933222;28;20275;-84
2023/06/20 19:29:47;;;;;;;3.08;1.67;;;;;;;;;;20981684;28;20283;-84
2023/06/20 19:39:48;;;;;;;2.33;1.60;;;;;;;;;;20991522;28;20287;-84
2023/06/20 19:49:50;;;;;;;4.65;1.55;;;;;;;;;;21004268;28;20276;-83
2023/06/20 19:59:52;;;;;;;3.28;1.55;;;;;;;;;;20986384;28;20221;-83
2023/06/20 20:09:53;;;;;;;2.55;1.40;;;;;;;;;;21020085;28;20232;-84
2023/06/20 20:19:55;;;;;;;2.75;1.50;;;;;;;;;;20985693;28;20225;-84
2023/06/20 20:29:57;;;;;;;4.40;2.28;;;;;;;;;;21003245;28;20243;-83
2023/06/20 20:39:59;;;;;;;3.05;1.50;;;;;;;;;;20963264;28;20232;-82
2023/06/20 20:50:00;;;;;;;2.50;1.50;;;;;;;;;;20958987;28;20682;-83
2023/06/20 21:00:05;;;;;;;4.90;1.60;;;;;;;;;;20952704;28;20604;-85
2023/06/20 21:10:07;;;;;;;4.07;1.80;;;;;;;;;;20983312;28;20330;-84
2023/06/20 21:20:10;;;;;;;3.55;2.13;;;;;;;;;;20964775;28;20235;-84
2023/06/20 21:30:12;;;;;;;2.65;1.63;;;;;;;;;;20963233;28;20236;-85
2023/06/20 21:40:13;;;;;;;2.25;1.23;;;;;;;;;;20952269;28;20240;-84
2023/06/20 21:50:23;;;;;;;2.42;1.45;;;28.30;99.90;;;;;;20960421;28;20695;-84
2023/06/20 22:00:26;;;;;;;3.40;1.45;;;;;;;;;;20947358;28;20231;-84
2023/06/20 22:10:27;;;;;;;2.30;1.40;;;;;;;;;;20976724;28;20785;-84
2023/06/20 22:20:29;;;;;;;3.22;1.50;;;;;;;;;;20959135;28;20220;-83
2023/06/20 22:30:30;;;;;;;2.22;1.70;;;;;;;;;;20942013;28;20278;-84
2023/06/20 22:40:32;;;;;;;3.25;1.27;;;;;;;;;;20975065;28;20282;-82
2023/06/20 22:50:34;;;;;;;3.00;1.52;;;;;;;;;;20994169;28;20233;-84
2023/06/20 23:00:37;;;;;;;1.73;1.30;;;;;;;;;;21026087;28;20266;-83
2023/06/20 23:10:39;;;;;;;2.10;1.30;;;;;;;;;;21030144;28;20701;-85
2023/06/20 23:20:46;;;;;;;3.20;1.35;;;;;;;;;;20987362;28;20249;-83
2023/06/20 23:30:48;;;;;;;2.20;1.42;;;;;;;;;;20985882;28;20664;-82
2023/06/20 23:40:49;;;;;;;2.38;1.30;;;;;;;;;;21034580;28;20247;-86
2023/06/20 23:50:54;;;;;;;2.83;1.33;;;26.90;99.90;;;;;;20966275;28;20220;-85
